Time;durP1;ratioP1;P1;durP2;ratioP2;P2;SDS_P1;SDS_P2;PMS_P1;PMS_P2;Temp;Humidity;BMP_temperature;BMP_pressure;BME280_temperature;BME280_humidity;BME280_pressure;Samples;Min_cycle;Max_cycle;Signal;HPM_P1;HPM_P2
2022/02/19 00:00:14;;;;;;;;;;;;;;;;;;2098936;28;19924;-44
2022/02/19 00:01:15;;;;;;;;;;;;;;;;;;2098279;28;20007;-50
2022/02/19 00:02:16;;;;;;;;;;;;;;;;;;2096198;28;19951;-49
2022/02/19 00:03:17;;;;;;;;;;;;;;;;;;2098987;28;19928;-49
2022/02/19 00:04:18;;;;;;;;;;;;;;;;;;2096696;28;19989;-50
2022/02/19 00:05:19;;;;;;;;;;;;;;;;;;2098558;28;19924;-50
2022/02/19 00:06:20;;;;;;;;;;;;;;;;;;2098777;28;19925;-50
2022/02/19 00:07:21;;;;;;;;;;;;;;;;;;2096709;28;19952;-52
2022/02/19 00:08:22;;;;;;;;;;;;;;;;;;2099083;28;20373;-50
2022/02/19 00:09:22;;;;;;;;;;;;;;;;;;2099090;28;19931;-50
2022/02/19 00:10:23;;;;;;;;;;;;;;;;;;2095221;28;19932;-50
2022/02/19 00:11:24;;;;;;;;;;;;;;;;;;2098832;28;19924;-50
2022/02/19 00:12:25;;;;;;;;;;;;;;;;;;2098600;28;19932;-43
2022/02/19 00:13:26;;;;;;;;;;;;;;;;;;2097111;28;19936;-44
2022/02/19 00:14:27;;;;;;;;;;;;;;;;;;2098720;28;20398;-44
2022/02/19 00:15:30;;;;;;;;;;;;;;;;;;2097979;28;19931;-43
2022/02/19 00:16:30;;;;;;;;;;;;;;;;;;2096454;28;19931;-44
2022/02/19 00:17:31;;;;;;;;;;;;;;;;;;2098747;28;20360;-43
2022/02/19 00:18:32;;;;;;;;;;;;;;;;;;2096544;28;20347;-43
2022/02/19 00:19:33;;;;;;;;;;;;;;;;;;2098430;28;19924;-44
2022/02/19 00:20:34;;;;;;;;;;;;;;;;;;2098735;28;19931;-44
2022/02/19 00:21:35;;;;;;;;;;;;;;;;;;2096618;28;19963;-49
2022/02/19 00:22:35;;;;;;;;;;;;;;;;;;2098833;28;20023;-50
2022/02/19 00:23:36;;;;;;;;;;;;;;;;;;2098637;28;19929;-50
2022/02/19 00:24:37;;;;;;;;;;;;;;;;;;2096482;28;19925;-50
2022/02/19 00:25:38;;;;;;;;;;;;;;;;;;2098694;28;20495;-50
2022/02/19 00:26:39;;;;;;;;;;;;;;;;;;2097026;28;19939;-49
2022/02/19 00:27:40;;;;;;;;;;;;;;;;;;2096680;28;19924;-50
2022/02/19 00:28:41;;;;;;;;;;;;;;;;;;2098721;28;20017;-49
2022/02/19 00:29:42;;;;;;;;;;;;;;;;;;2097982;28;20345;-52
2022/02/19 00:30:43;;;;;;;;;;;;;;;;;;2097206;28;19963;-51
2022/02/19 00:31:44;;;;;;;;;;;;;;;;;;2098646;28;19960;-49
2022/02/19 00:32:44;;;;;;;;;;;;;;;;;;2097541;28;20484;-49
2022/02/19 00:33:45;;;;;;;;;;;;;;;;;;2091426;28;19932;-49
2022/02/19 00:34:47;;;;;;;;;;;;;;;;;;2090732;28;19964;-43
2022/02/19 00:35:48;;;;;;;;;;;;;;;;;;2094509;28;20382;-43
2022/02/19 00:36:49;;;;;;;;;;;;;;;;;;2098679;28;19928;-43
2022/02/19 00:37:50;;;;;;;;;;;;;;;;;;2098574;28;20007;-43
2022/02/19 00:38:51;;;;;;;;;;;;;;;;;;2095457;28;19928;-44
2022/02/19 00:39:52;;;;;;;;;;;;;;;;;;2098515;28;19924;-43
2022/02/19 00:40:53;;;;;;;;;;;;;;;;;;2097980;28;20050;-43
2022/02/19 00:41:54;;;;;;;;;;;;;;;;;;2097081;28;20396;-43
2022/02/19 00:42:54;;;;;;;;;;;;;;;;;;2098650;28;19929;-43
2022/02/19 00:43:57;;;;;;;;;;;;;;;;;;2096459;28;19947;-43
2022/02/19 00:44:58;;;;;;;;;;;;;;;;;;2097415;28;19924;-44
2022/02/19 00:45:59;;;;;;;;;;;;;;;;;;2098608;28;20357;-44
2022/02/19 00:46:59;;;;;;;;;;;;;;;;;;2096362;28;19932;-43
2022/02/19 00:48:00;;;;;;;;;;;;;;;;;;2098537;28;20015;-43
2022/02/19 00:49:02;;;;;;;;;;;;;;;;;;2098620;28;20365;-44
2022/02/19 00:50:04;;;;;;;;;;;;;;;;;;2094062;28;19925;-43
2022/02/19 00:51:04;;;;;;;;;;;;;;;;;;2090328;28;19963;-43
2022/02/19 00:52:05;;;;;;;;;;;;;;;;;;2091728;28;20290;-43
2022/02/19 00:53:06;;;;;;;;;;;;;;;;;;2096669;28;19935;-43
2022/02/19 00:54:07;;;;;;;;;;;;;;;;;;2098648;28;19925;-44
2022/02/19 00:55:09;;;;;;;;;;;;;;;;;;2096519;28;20015;-42
2022/02/19 00:56:10;;;;;;;;;;;;;;;;;;2097562;28;19994;-44
2022/02/19 00:57:10;;;;;;;;;;;;;;;;;;2098516;28;20370;-43
2022/02/19 00:58:11;;;;;;;;;;;;;;;;;;2096133;28;20017;-44
2022/02/19 00:59:12;;;;;;;;;;;;;;;;;;2090497;28;19995;-43
2022/02/19 01:00:13;;;;;;;;;;;;;;;;;;2090004;28;20032;-43
2022/02/19 01:01:14;;;;;;;;;;;;;;;;;;2094081;28;19931;-50
2022/02/19 01:02:15;;;;;;;;;;;;;;;;;;2098499;28;19986;-50
2022/02/19 01:03:16;;;;;;;;;;;;;;;;;;2098607;28;20085;-50
2022/02/19 01:04:17;;;;;;;;;;;;;;;;;;2096238;28;19932;-52
2022/02/19 01:05:17;;;;;;;;;;;;;;;;;;2098500;28;20360;-49
2022/02/19 01:06:19;;;;;;;;;;;;;;;;;;2096887;28;19925;-51
2022/02/19 01:07:23;;;;;;;;;;;;;;;;;;2096366;28;20389;-51
2022/02/19 01:08:23;;;;;;;;;;;;;;;;;;2098383;28;19924;-53
2022/02/19 01:09:26;;;;;;;;;;;;;;;;;;2096849;28;19924;-54
2022/02/19 01:10:27;;;;;;;;;;;;;;;;;;2097207;28;19928;-53
2022/02/19 01:11:28;;;;;;;;;;;;;;;;;;2098297;28;20356;-51
2022/02/19 01:12:28;;;;;;;;;;;;;;;;;;2096226;28;19925;-51
2022/02/19 01:13:29;;;;;;;;;;;;;;;;;;2098338;28;20381;-53
2022/02/19 01:14:30;;;;;;;;;;;;;;;;;;2098719;28;19964;-44
2022/02/19 01:15:31;;;;;;;;;;;;;;;;;;2096109;28;19958;-44
2022/02/19 01:16:32;;;;;;;;;;;;;;;;;;2098369;28;20366;-43
2022/02/19 01:17:33;;;;;;;;;;;;;;;;;;2097910;28;20262;-44
2022/02/19 01:18:33;;;;;;;;;;;;;;;;;;2095372;28;19947;-46
2022/02/19 01:19:34;;;;;;;;;;;;;;;;;;2098439;28;19925;-44
2022/02/19 01:20:36;;;;;;;;;;;;;;;;;;2097574;28;19924;-43
2022/02/19 01:21:37;;;;;;;;;;;;;;;;;;2095738;28;19991;-44
2022/02/19 01:22:39;;;;;;;;;;;;;;;;;;2098334;28;19960;-44
2022/02/19 01:23:40;;;;;;;;;;;;;;;;;;2096336;28;20300;-44
2022/02/19 01:24:41;;;;;;;;;;;;;;;;;;2097942;28;19967;-44
2022/02/19 01:25:41;;;;;;;;;;;;;;;;;;2098325;28;19925;-44
2022/02/19 01:26:42;;;;;;;;;;;;;;;;;;2096153;28;20357;-44
2022/02/19 01:27:43;;;;;;;;;;;;;;;;;;2089965;28;19932;-44
2022/02/19 01:28:44;;;;;;;;;;;;;;;;;;2093840;28;20003;-44
2022/02/19 01:29:45;;;;;;;;;;;;;;;;;;2094691;28;19990;-45
2022/02/19 01:30:46;;;;;;;;;;;;;;;;;;2098325;28;20412;-44
2022/02/19 01:31:47;;;;;;;;;;;;;;;;;;2097736;28;19936;-44
2022/02/19 01:32:48;;;;;;;;;;;;;;;;;;2096481;28;20007;-43
2022/02/19 01:33:48;;;;;;;;;;;;;;;;;;2098392;28;19925;-53
2022/02/19 01:34:49;;;;;;;;;;;;;;;;;;2097483;28;19931;-49
2022/02/19 01:35:50;;;;;;;;;;;;;;;;;;2096834;28;20015;-50
2022/02/19 01:36:52;;;;;;;;;;;;;;;;;;2098354;28;19924;-53
2022/02/19 01:37:52;;;;;;;;;;;;;;;;;;2096098;28;20020;-50
2022/02/19 01:38:53;;;;;;;;;;;;;;;;;;2097976;28;19970;-52
2022/02/19 01:39:54;;;;;;;;;;;;;;;;;;2098263;28;19967;-50
2022/02/19 01:40:55;;;;;;;;;;;;;;;;;;2092291;28;19924;-50
2022/02/19 01:41:56;;;;;;;;;;;;;;;;;;2089896;28;20374;-53
2022/02/19 01:42:57;;;;;;;;;;;;;;;;;;2090728;28;19936;-50
2022/02/19 01:43:58;;;;;;;;;;;;;;;;;;2097075;28;19932;-51
2022/02/19 01:44:59;;;;;;;;;;;;;;;;;;2098199;28;19924;-51
2022/02/19 01:46:00;;;;;;;;;;;;;;;;;;2097102;28;19982;-49
2022/02/19 01:47:01;;;;;;;;;;;;;;;;;;2096700;28;20023;-54
2022/02/19 01:48:01;;;;;;;;;;;;;;;;;;2098365;28;20017;-50
2022/02/19 01:49:03;;;;;;;;;;;;;;;;;;2094655;28;20344;-50
2022/02/19 01:50:03;;;;;;;;;;;;;;;;;;2097965;28;19961;-50
2022/02/19 01:51:04;;;;;;;;;;;;;;;;;;2098180;28;20054;-50
2022/02/19 01:52:06;;;;;;;;;;;;;;;;;;2094456;28;20054;-49
2022/02/19 01:53:07;;;;;;;;;;;;;;;;;;2098156;28;20011;-52
2022/02/19 01:54:08;;;;;;;;;;;;;;;;;;2097307;28;19981;-52
2022/02/19 01:55:09;;;;;;;;;;;;;;;;;;2095543;28;20336;-53
2022/02/19 01:56:10;;;;;;;;;;;;;;;;;;2098016;28;20445;-50
2022/02/19 01:57:11;;;;;;;;;;;;;;;;;;2097449;28;19974;-53
2022/02/19 01:58:11;;;;;;;;;;;;;;;;;;2091998;28;20290;-51
2022/02/19 01:59:12;;;;;;;;;;;;;;;;;;2089935;28;19994;-50
2022/02/19 02:00:13;;;;;;;;;;;;;;;;;;2090562;28;20358;-44
2022/02/19 02:01:14;;;;;;;;;;;;;;;;;;2097732;28;19925;-53
2022/02/19 02:02:15;;;;;;;;;;;;;;;;;;2098120;28;19924;-53
2022/02/19 02:03:16;;;;;;;;;;;;;;;;;;2095862;28;19978;-52
2022/02/19 02:04:17;;;;;;;;;;;;;;;;;;2097827;28;19929;-51
2022/02/19 02:05:17;;;;;;;;;;;;;;;;;;2098207;28;19924;-54
2022/02/19 02:06:18;;;;;;;;;;;;;;;;;;2096044;28;20400;-50
2022/02/19 02:07:19;;;;;;;;;;;;;;;;;;2098059;28;19924;-52
2022/02/19 02:08:20;;;;;;;;;;;;;;;;;;2097567;28;20058;-51
2022/02/19 02:09:21;;;;;;;;;;;;;;;;;;2096279;28;20429;-53
2022/02/19 02:10:22;;;;;;;;;;;;;;;;;;2097970;28;19970;-53
2022/02/19 02:11:23;;;;;;;;;;;;;;;;;;2095770;28;20290;-52
2022/02/19 02:12:24;;;;;;;;;;;;;;;;;;2095478;28;19974;-52
2022/02/19 02:13:25;;;;;;;;;;;;;;;;;;2097943;28;19924;-50
2022/02/19 02:14:25;;;;;;;;;;;;;;;;;;2095986;28;19982;-52
2022/02/19 02:15:26;;;;;;;;;;;;;;;;;;2097822;28;19951;-50
2022/02/19 02:16:28;;;;;;;;;;;;;;;;;;2097895;28;19931;-52
2022/02/19 02:17:28;;;;;;;;;;;;;;;;;;2092356;28;19967;-49
2022/02/19 02:18:30;;;;;;;;;;;;;;;;;;2089724;28;20312;-53
2022/02/19 02:19:30;;;;;;;;;;;;;;;;;;2090464;28;20004;-50
2022/02/19 02:20:32;;;;;;;;;;;;;;;;;;2096537;28;19929;-50
2022/02/19 02:21:32;;;;;;;;;;;;;;;;;;2097830;28;20028;-50
2022/02/19 02:22:33;;;;;;;;;;;;;;;;;;2095764;28;19948;-50
2022/02/19 02:23:34;;;;;;;;;;;;;;;;;;2096530;28;20353;-52
2022/02/19 02:24:35;;;;;;;;;;;;;;;;;;2097864;28;19947;-50
2022/02/19 02:25:36;;;;;;;;;;;;;;;;;;2094622;28;19968;-52
2022/02/19 02:26:37;;;;;;;;;;;;;;;;;;2097856;28;19959;-50
2022/02/19 02:27:38;;;;;;;;;;;;;;;;;;2097980;28;20148;-52
2022/02/19 02:28:39;;;;;;;;;;;;;;;;;;2095709;28;20019;-52
2022/02/19 02:29:39;;;;;;;;;;;;;;;;;;2098190;28;19975;-44
2022/02/19 02:30:41;;;;;;;;;;;;;;;;;;2097564;28;20024;-44
2022/02/19 02:31:41;;;;;;;;;;;;;;;;;;2093408;28;19932;-44
2022/02/19 02:32:42;;;;;;;;;;;;;;;;;;2089620;28;19925;-44
2022/02/19 02:33:43;;;;;;;;;;;;;;;;;;2090313;28;20040;-44
2022/02/19 02:34:44;;;;;;;;;;;;;;;;;;2094573;28;19950;-45
2022/02/19 02:35:45;;;;;;;;;;;;;;;;;;2097165;28;19925;-45
2022/02/19 02:36:46;;;;;;;;;;;;;;;;;;2095281;28;20023;-44
2022/02/19 02:37:47;;;;;;;;;;;;;;;;;;2097598;28;19928;-45
2022/02/19 02:38:53;;;;;;;;;;;;;;;;;;2097809;28;19968;-45
2022/02/19 02:39:53;;;;;;;;;;;;;;;;;;2094281;28;20433;-44
2022/02/19 02:40:54;;;;;;;;;;;;;;;;;;2097841;28;19968;-45
2022/02/19 02:41:55;;;;;;;;;;;;;;;;;;2097831;28;19924;-45
2022/02/19 02:42:56;;;;;;;;;;;;;;;;;;2094370;28;19935;-45
2022/02/19 02:43:57;;;;;;;;;;;;;;;;;;2097766;28;20339;-45
2022/02/19 02:44:58;;;;;;;;;;;;;;;;;;2096236;28;19925;-44
2022/02/19 02:46:19;;;;;;;;;;;;;;;;;;2095663;28;19931;-44
2022/02/19 02:47:19;;;;;;;;;;;;;;;;;;2097907;28;19931;-44
2022/02/19 02:48:21;;;;;;;;;;;;;;;;;;2095775;28;20370;-44
2022/02/19 02:49:22;;;;;;;;;;;;;;;;;;2089413;28;20070;-44
2022/02/19 02:50:23;;;;;;;;;;;;;;;;;;2089429;28;20027;-45
2022/02/19 02:51:23;;;;;;;;;;;;;;;;;;2094784;28;19932;-45
2022/02/19 02:52:24;;;;;;;;;;;;;;;;;;2097709;28;20273;-44
2022/02/19 02:53:26;;;;;;;;;;;;;;;;;;2097421;28;19932;-44
2022/02/19 02:54:27;;;;;;;;;;;;;;;;;;2095958;28;20032;-46
2022/02/19 02:55:27;;;;;;;;;;;;;;;;;;2097659;28;19947;-44
2022/02/19 02:56:28;;;;;;;;;;;;;;;;;;2095445;28;20007;-44
2022/02/19 02:57:29;;;;;;;;;;;;;;;;;;2096812;28;20401;-44
2022/02/19 02:58:30;;;;;;;;;;;;;;;;;;2097690;28;20011;-44
2022/02/19 02:59:31;;;;;;;;;;;;;;;;;;2096722;28;19935;-45
2022/02/19 03:00:32;;;;;;;;;;;;;;;;;;2089611;28;20366;-51
2022/02/19 03:01:33;;;;;;;;;;;;;;;;;;2095253;28;20022;-51
2022/02/19 03:02:34;;;;;;;;;;;;;;;;;;2095372;28;19973;-50
2022/02/19 03:03:35;;;;;;;;;;;;;;;;;;2097953;28;19970;-45
2022/02/19 03:04:36;;;;;;;;;;;;;;;;;;2097657;28;19986;-46
2022/02/19 03:05:37;;;;;;;;;;;;;;;;;;2093166;28;20036;-45
2022/02/19 03:06:37;;;;;;;;;;;;;;;;;;2097538;28;19932;-45
2022/02/19 03:07:38;;;;;;;;;;;;;;;;;;2097497;28;19924;-51
2022/02/19 03:08:39;;;;;;;;;;;;;;;;;;2096105;28;20468;-51
2022/02/19 03:09:40;;;;;;;;;;;;;;;;;;2097675;28;19928;-51
2022/02/19 03:10:44;;;;;;;;;;;;;;;;;;2095887;28;19925;-46
2022/02/19 03:11:45;;;;;;;;;;;;;;;;;;2096551;28;19924;-54
2022/02/19 03:12:46;;;;;;;;;;;;;;;;;;2097670;28;20389;-51
2022/02/19 03:13:47;;;;;;;;;;;;;;;;;;2096564;28;20012;-51
2022/02/19 03:14:48;;;;;;;;;;;;;;;;;;2098954;28;20001;-51
2022/02/19 03:15:49;;;;;;;;;;;;;;;;;;2099022;28;19930;-54
2022/02/19 03:16:50;;;;;;;;;;;;;;;;;;2096795;28;20377;-53
2022/02/19 03:17:51;;;;;;;;;;;;;;;;;;2099536;28;19964;-45
2022/02/19 03:18:52;;;;;;;;;;;;;;;;;;2098326;28;19925;-44
2022/02/19 03:19:52;;;;;;;;;;;;;;;;;;2096260;28;19925;-44
2022/02/19 03:20:53;;;;;;;;;;;;;;;;;;2098915;28;19972;-44
2022/02/19 03:21:54;;;;;;;;;;;;;;;;;;2098403;28;19954;-44
2022/02/19 03:22:55;;;;;;;;;;;;;;;;;;2096471;28;19931;-44
2022/02/19 03:23:56;;;;;;;;;;;;;;;;;;2099002;28;20476;-46
2022/02/19 03:24:57;;;;;;;;;;;;;;;;;;2097127;28;20011;-44
2022/02/19 03:25:58;;;;;;;;;;;;;;;;;;2098746;28;19924;-44
2022/02/19 03:27:00;;;;;;;;;;;;;;;;;;2099163;28;19924;-44
2022/02/19 03:28:01;;;;;;;;;;;;;;;;;;2097085;28;20011;-51
2022/02/19 03:29:02;;;;;;;;;;;;;;;;;;2090777;28;19932;-51
2022/02/19 03:30:03;;;;;;;;;;;;;;;;;;2090671;28;19925;-53
2022/02/19 03:31:03;;;;;;;;;;;;;;;;;;2094591;28;20413;-54
2022/02/19 03:32:05;;;;;;;;;;;;;;;;;;2098992;28;19950;-51
2022/02/19 03:33:05;;;;;;;;;;;;;;;;;;2098669;28;19955;-51
2022/02/19 03:34:06;;;;;;;;;;;;;;;;;;2097294;28;19939;-51
2022/02/19 03:35:07;;;;;;;;;;;;;;;;;;2099025;28;19974;-53
2022/02/19 03:36:08;;;;;;;;;;;;;;;;;;2098201;28;19975;-50
2022/02/19 03:37:09;;;;;;;;;;;;;;;;;;2097907;28;19947;-53
2022/02/19 03:38:10;;;;;;;;;;;;;;;;;;2099007;28;20428;-50
2022/02/19 03:39:11;;;;;;;;;;;;;;;;;;2094794;28;19924;-52
2022/02/19 03:40:12;;;;;;;;;;;;;;;;;;2098222;28;19925;-55
2022/02/19 03:41:12;;;;;;;;;;;;;;;;;;2098864;28;20223;-45
2022/02/19 03:42:13;;;;;;;;;;;;;;;;;;2095249;28;19925;-45
2022/02/19 03:43:14;;;;;;;;;;;;;;;;;;2098952;28;20297;-45
2022/02/19 03:44:15;;;;;;;;;;;;;;;;;;2098859;28;19939;-45
2022/02/19 03:45:16;;;;;;;;;;;;;;;;;;2096778;28;19925;-45
2022/02/19 03:46:17;;;;;;;;;;;;;;;;;;2098802;28;20331;-46
2022/02/19 03:47:18;;;;;;;;;;;;;;;;;;2098333;28;19924;-45
2022/02/19 03:48:19;;;;;;;;;;;;;;;;;;2097162;28;19928;-45
2022/02/19 03:49:19;;;;;;;;;;;;;;;;;;2098647;28;19931;-46
2022/02/19 03:50:21;;;;;;;;;;;;;;;;;;2097936;28;20278;-45
2022/02/19 03:51:21;;;;;;;;;;;;;;;;;;2097318;28;19932;-46
2022/02/19 03:52:23;;;;;;;;;;;;;;;;;;2098777;28;19929;-46
2022/02/19 03:53:23;;;;;;;;;;;;;;;;;;2097747;28;19947;-45
2022/02/19 03:54:24;;;;;;;;;;;;;;;;;;2090469;28;20370;-45
2022/02/19 03:55:25;;;;;;;;;;;;;;;;;;2090504;28;19963;-45
2022/02/19 03:56:26;;;;;;;;;;;;;;;;;;2094122;28;20348;-45
2022/02/19 03:57:27;;;;;;;;;;;;;;;;;;2090364;28;19929;-46
2022/02/19 03:58:28;;;;;;;;;;;;;;;;;;2090376;28;19964;-46
2022/02/19 03:59:28;;;;;;;;;;;;;;;;;;2096309;28;19929;-46
2022/02/19 04:00:29;;;;;;;;;;;;;;;;;;2098555;28;19931;-45
2022/02/19 04:01:30;;;;;;;;;;;;;;;;;;2097822;28;19932;-55
2022/02/19 04:02:31;;;;;;;;;;;;;;;;;;2097182;28;19939;-51
2022/02/19 04:03:32;;;;;;;;;;;;;;;;;;2098820;28;19928;-54
2022/02/19 04:04:33;;;;;;;;;;;;;;;;;;2095846;28;19925;-52
2022/02/19 04:05:33;;;;;;;;;;;;;;;;;;2097117;28;19960;-54
2022/02/19 04:06:34;;;;;;;;;;;;;;;;;;2098910;28;20096;-51
2022/02/19 04:07:35;;;;;;;;;;;;;;;;;;2096633;28;19924;-54
2022/02/19 04:08:36;;;;;;;;;;;;;;;;;;2098725;28;20381;-53
2022/02/19 04:09:37;;;;;;;;;;;;;;;;;;2098733;28;20015;-52
2022/02/19 04:10:39;;;;;;;;;;;;;;;;;;2096625;28;20389;-52
2022/02/19 04:11:39;;;;;;;;;;;;;;;;;;2098772;28;19960;-51
2022/02/19 04:12:40;;;;;;;;;;;;;;;;;;2098405;28;19931;-52
2022/02/19 04:13:41;;;;;;;;;;;;;;;;;;2095983;28;19932;-46
2022/02/19 04:14:42;;;;;;;;;;;;;;;;;;2098741;28;20056;-46
2022/02/19 04:15:43;;;;;;;;;;;;;;;;;;2097987;28;19925;-46
2022/02/19 04:16:44;;;;;;;;;;;;;;;;;;2096166;28;19931;-45
2022/02/19 04:17:45;;;;;;;;;;;;;;;;;;2098661;28;19925;-45
2022/02/19 04:18:46;;;;;;;;;;;;;;;;;;2097839;28;20274;-45
2022/02/19 04:19:49;;;;;;;;;;;;;;;;;;2096441;28;20117;-45
2022/02/19 04:20:49;;;;;;;;;;;;;;;;;;2098526;28;20265;-45
2022/02/19 04:21:50;;;;;;;;;;;;;;;;;;2096666;28;19925;-45
2022/02/19 04:22:51;;;;;;;;;;;;;;;;;;2098637;28;19924;-45
2022/02/19 04:23:52;;;;;;;;;;;;;;;;;;2098809;28;19925;-45
2022/02/19 04:24:53;;;;;;;;;;;;;;;;;;2095071;28;19926;-46
2022/02/19 04:25:54;;;;;;;;;;;;;;;;;;2098316;28;19925;-45
2022/02/19 04:26:55;;;;;;;;;;;;;;;;;;2097541;28;19931;-46
2022/02/19 04:27:56;;;;;;;;;;;;;;;;;;2096664;28;20327;-46
2022/02/19 04:28:56;;;;;;;;;;;;;;;;;;2098606;28;19925;-45
2022/02/19 04:29:57;;;;;;;;;;;;;;;;;;2095710;28;19928;-45
2022/02/19 04:30:58;;;;;;;;;;;;;;;;;;2096503;28;19924;-54
2022/02/19 04:31:59;;;;;;;;;;;;;;;;;;2098579;28;20404;-50
2022/02/19 04:33:00;;;;;;;;;;;;;;;;;;2097675;28;19986;-51
2022/02/19 04:34:01;;;;;;;;;;;;;;;;;;2090577;28;19925;-54
2022/02/19 04:35:02;;;;;;;;;;;;;;;;;;2090453;28;19951;-54
2022/02/19 04:36:03;;;;;;;;;;;;;;;;;;2092958;28;20430;-53
2022/02/19 04:37:04;;;;;;;;;;;;;;;;;;2098806;28;20031;-46
2022/02/19 04:38:04;;;;;;;;;;;;;;;;;;2098658;28;19924;-45
2022/02/19 04:39:06;;;;;;;;;;;;;;;;;;2095007;28;19978;-46
2022/02/19 04:40:08;;;;;;;;;;;;;;;;;;2098657;28;19979;-48
2022/02/19 04:41:09;;;;;;;;;;;;;;;;;;2098089;28;20412;-48
2022/02/19 04:42:10;;;;;;;;;;;;;;;;;;2096195;28;19931;-47
2022/02/19 04:43:10;;;;;;;;;;;;;;;;;;2098508;28;19951;-47
2022/02/19 04:44:11;;;;;;;;;;;;;;;;;;2097343;28;19967;-46
2022/02/19 04:45:12;;;;;;;;;;;;;;;;;;2096768;28;19932;-47
2022/02/19 04:46:13;;;;;;;;;;;;;;;;;;2098483;28;19924;-47
2022/02/19 04:47:14;;;;;;;;;;;;;;;;;;2097559;28;19978;-47
2022/02/19 04:48:15;;;;;;;;;;;;;;;;;;2097502;28;20445;-46
2022/02/19 04:49:16;;;;;;;;;;;;;;;;;;2098825;28;19936;-49
2022/02/19 04:50:17;;;;;;;;;;;;;;;;;;2095175;28;19958;-47
2022/02/19 04:51:18;;;;;;;;;;;;;;;;;;2098572;28;19955;-46
2022/02/19 04:52:19;;;;;;;;;;;;;;;;;;2098479;28;19970;-46
2022/02/19 04:53:19;;;;;;;;;;;;;;;;;;2094959;28;20340;-47
2022/02/19 04:54:20;;;;;;;;;;;;;;;;;;2098569;28;19924;-49
2022/02/19 04:55:21;;;;;;;;;;;;;;;;;;2097698;28;19924;-48
2022/02/19 04:56:22;;;;;;;;;;;;;;;;;;2097209;28;19931;-46
2022/02/19 04:57:23;;;;;;;;;;;;;;;;;;2098454;28;19928;-46
2022/02/19 04:58:24;;;;;;;;;;;;;;;;;;2096494;28;19925;-57
2022/02/19 04:59:24;;;;;;;;;;;;;;;;;;2091140;28;19925;-56
2022/02/19 05:00:25;;;;;;;;;;;;;;;;;;2090092;28;19925;-56
2022/02/19 05:01:26;;;;;;;;;;;;;;;;;;2094115;28;19929;-57
2022/02/19 05:02:27;;;;;;;;;;;;;;;;;;2097834;28;19928;-58
2022/02/19 05:03:28;;;;;;;;;;;;;;;;;;2098552;28;20365;-58
2022/02/19 05:04:29;;;;;;;;;;;;;;;;;;2096055;28;19932;-58
2022/02/19 05:05:30;;;;;;;;;;;;;;;;;;2098654;28;19925;-47
2022/02/19 05:06:30;;;;;;;;;;;;;;;;;;2097841;28;19951;-47
2022/02/19 05:07:31;;;;;;;;;;;;;;;;;;2096996;28;19932;-48
2022/02/19 05:08:32;;;;;;;;;;;;;;;;;;2098329;28;20239;-47
2022/02/19 05:09:33;;;;;;;;;;;;;;;;;;2097640;28;19924;-48
2022/02/19 05:10:34;;;;;;;;;;;;;;;;;;2096898;28;19954;-48
2022/02/19 05:11:35;;;;;;;;;;;;;;;;;;2098321;28;19924;-48
2022/02/19 05:12:40;;;;;;;;;;;;;;;;;;2097456;28;19974;-48
2022/02/19 05:13:41;;;;;;;;;;;;;;;;;;2093378;28;20011;-47
2022/02/19 05:14:42;;;;;;;;;;;;;;;;;;2098328;28;19932;-49
2022/02/19 05:15:43;;;;;;;;;;;;;;;;;;2093552;28;19928;-47
2022/02/19 05:16:44;;;;;;;;;;;;;;;;;;2098373;28;19924;-48
2022/02/19 05:17:44;;;;;;;;;;;;;;;;;;2098462;28;19924;-47
2022/02/19 05:18:45;;;;;;;;;;;;;;;;;;2094517;28;20340;-56
2022/02/19 05:19:46;;;;;;;;;;;;;;;;;;2090323;28;19924;-57
2022/02/19 05:20:47;;;;;;;;;;;;;;;;;;2090479;28;19929;-56
2022/02/19 05:21:48;;;;;;;;;;;;;;;;;;2096499;28;20289;-56
2022/02/19 05:22:49;;;;;;;;;;;;;;;;;;2098245;28;19924;-57
2022/02/19 05:23:50;;;;;;;;;;;;;;;;;;2096981;28;19968;-55
2022/02/19 05:24:50;;;;;;;;;;;;;;;;;;2096254;28;19925;-54
2022/02/19 05:25:52;;;;;;;;;;;;;;;;;;2098618;28;19924;-48
2022/02/19 05:26:53;;;;;;;;;;;;;;;;;;2096247;28;20387;-46
2022/02/19 05:27:54;;;;;;;;;;;;;;;;;;2098027;28;19967;-48
2022/02/19 05:28:55;;;;;;;;;;;;;;;;;;2098470;28;19973;-53
2022/02/19 05:29:56;;;;;;;;;;;;;;;;;;2093836;28;20464;-52
2022/02/19 05:30:56;;;;;;;;;;;;;;;;;;2098316;28;19929;-53
2022/02/19 05:31:57;;;;;;;;;;;;;;;;;;2098208;28;19928;-54
2022/02/19 05:32:58;;;;;;;;;;;;;;;;;;2093718;28;19978;-54
2022/02/19 05:34:00;;;;;;;;;;;;;;;;;;2097158;28;20019;-52
2022/02/19 05:35:00;;;;;;;;;;;;;;;;;;2097404;28;19925;-54
2022/02/19 05:36:02;;;;;;;;;;;;;;;;;;2096409;28;20357;-53
2022/02/19 05:37:03;;;;;;;;;;;;;;;;;;2098427;28;19925;-53
2022/02/19 05:38:04;;;;;;;;;;;;;;;;;;2096870;28;20276;-54
2022/02/19 05:39:05;;;;;;;;;;;;;;;;;;2096713;28;20031;-54
2022/02/19 05:40:06;;;;;;;;;;;;;;;;;;2098416;28;20397;-54
2022/02/19 05:41:07;;;;;;;;;;;;;;;;;;2093658;28;19951;-55
2022/02/19 05:42:08;;;;;;;;;;;;;;;;;;2098090;28;20407;-54
2022/02/19 05:43:09;;;;;;;;;;;;;;;;;;2098292;28;19925;-55
2022/02/19 05:44:09;;;;;;;;;;;;;;;;;;2095868;28;20404;-54
2022/02/19 05:45:11;;;;;;;;;;;;;;;;;;2098491;28;19925;-46
2022/02/19 05:46:11;;;;;;;;;;;;;;;;;;2097774;28;20340;-55
2022/02/19 05:47:12;;;;;;;;;;;;;;;;;;2096855;28;19968;-45
2022/02/19 05:48:13;;;;;;;;;;;;;;;;;;2098086;28;19924;-45
2022/02/19 05:49:15;;;;;;;;;;;;;;;;;;2097485;28;19924;-55
2022/02/19 05:50:16;;;;;;;;;;;;;;;;;;2091800;28;19980;-55
2022/02/19 05:51:21;;;;;;;;;;;;;;;;;;2090021;28;19925;-56
2022/02/19 05:52:22;;;;;;;;;;;;;;;;;;2092188;28;20301;-55
2022/02/19 05:53:24;;;;;;;;;;;;;;;;;;2098209;28;19997;-55
2022/02/19 05:54:24;;;;;;;;;;;;;;;;;;2098190;28;20008;-56
2022/02/19 05:55:25;;;;;;;;;;;;;;;;;;2095794;28;20016;-55
2022/02/19 05:56:26;;;;;;;;;;;;;;;;;;2098007;28;19986;-56
2022/02/19 05:57:27;;;;;;;;;;;;;;;;;;2097987;28;19928;-56
2022/02/19 05:58:28;;;;;;;;;;;;;;;;;;2095691;28;20328;-58
2022/02/19 05:59:29;;;;;;;;;;;;;;;;;;2098067;28;19924;-59
2022/02/19 06:00:30;;;;;;;;;;;;;;;;;;2097526;28;19925;-58
2022/02/19 06:01:31;;;;;;;;;;;;;;;;;;2095260;28;20451;-60
2022/02/19 06:02:31;;;;;;;;;;;;;;;;;;2098360;28;19928;-60
2022/02/19 06:03:33;;;;;;;;;;;;;;;;;;2096222;28;20420;-49
2022/02/19 06:04:33;;;;;;;;;;;;;;;;;;2091319;28;20394;-48
2022/02/19 06:05:34;;;;;;;;;;;;;;;;;;2089770;28;19925;-48
2022/02/19 06:06:35;;;;;;;;;;;;;;;;;;2091136;28;19925;-51
2022/02/19 06:07:36;;;;;;;;;;;;;;;;;;2098020;28;19925;-48
2022/02/19 06:08:37;;;;;;;;;;;;;;;;;;2098056;28;19967;-48
2022/02/19 06:09:38;;;;;;;;;;;;;;;;;;2096222;28;20007;-60
2022/02/19 06:10:42;;;;;;;;;;;;;;;;;;2098124;28;19924;-50
2022/02/19 06:11:43;;;;;;;;;;;;;;;;;;2097538;28;20364;-61
2022/02/19 06:12:44;;;;;;;;;;;;;;;;;;2096167;28;19924;-62
2022/02/19 06:13:45;;;;;;;;;;;;;;;;;;2097977;28;19924;-61
2022/02/19 06:14:46;;;;;;;;;;;;;;;;;;2095920;28;20309;-58
2022/02/19 06:15:47;;;;;;;;;;;;;;;;;;2096484;28;20181;-56
2022/02/19 06:16:49;;;;;;;;;;;;;;;;;;2098115;28;20018;-50
2022/02/19 06:17:50;;;;;;;;;;;;;;;;;;2096827;28;20533;-47
2022/02/19 06:18:51;;;;;;;;;;;;;;;;;;2090325;28;19932;-46
2022/02/19 06:19:51;;;;;;;;;;;;;;;;;;2089875;28;20296;-55
2022/02/19 06:20:52;;;;;;;;;;;;;;;;;;2093198;28;20365;-54
2022/02/19 06:21:53;;;;;;;;;;;;;;;;;;2097995;28;19964;-53
2022/02/19 06:22:54;;;;;;;;;;;;;;;;;;2097953;28;20013;-50
2022/02/19 06:23:55;;;;;;;;;;;;;;;;;;2094226;28;19925;-54
2022/02/19 06:24:56;;;;;;;;;;;;;;;;;;2097987;28;19925;-54
2022/02/19 06:25:56;;;;;;;;;;;;;;;;;;2097395;28;19947;-54
2022/02/19 06:26:57;;;;;;;;;;;;;;;;;;2096201;28;19962;-55
2022/02/19 06:27:58;;;;;;;;;;;;;;;;;;2097887;28;20262;-60
2022/02/19 06:28:59;;;;;;;;;;;;;;;;;;2095593;28;19943;-55
2022/02/19 06:30:00;;;;;;;;;;;;;;;;;;2096939;28;20002;-60
2022/02/19 06:31:01;;;;;;;;;;;;;;;;;;2097760;28;20443;-60
2022/02/19 06:32:02;;;;;;;;;;;;;;;;;;2097077;28;19931;-48
2022/02/19 06:33:03;;;;;;;;;;;;;;;;;;2089942;28;20453;-60
2022/02/19 06:34:04;;;;;;;;;;;;;;;;;;2089699;28;19932;-59
2022/02/19 06:35:04;;;;;;;;;;;;;;;;;;2093352;28;19925;-60
2022/02/19 06:36:05;;;;;;;;;;;;;;;;;;2097986;28;19967;-59
2022/02/19 06:37:06;;;;;;;;;;;;;;;;;;2098136;28;19909;-48
2022/02/19 06:38:07;;;;;;;;;;;;;;;;;;2092346;28;20395;-47
2022/02/19 06:39:08;;;;;;;;;;;;;;;;;;2089610;28;19939;-51
2022/02/19 06:40:09;;;;;;;;;;;;;;;;;;2090402;28;19932;-47
2022/02/19 06:41:10;;;;;;;;;;;;;;;;;;2096265;28;19928;-57
2022/02/19 06:42:10;;;;;;;;;;;;;;;;;;2097892;28;19929;-58
2022/02/19 06:43:11;;;;;;;;;;;;;;;;;;2096516;28;19924;-58
2022/02/19 06:44:12;;;;;;;;;;;;;;;;;;2097280;28;19925;-58
2022/02/19 06:45:13;;;;;;;;;;;;;;;;;;2097860;28;19925;-57
2022/02/19 06:46:14;;;;;;;;;;;;;;;;;;2096704;28;20283;-58
2022/02/19 06:47:15;;;;;;;;;;;;;;;;;;2089494;28;19947;-58
2022/02/19 06:48:16;;;;;;;;;;;;;;;;;;2088707;28;19925;-57
2022/02/19 06:49:17;;;;;;;;;;;;;;;;;;2091669;28;20352;-58
2022/02/19 06:50:18;;;;;;;;;;;;;;;;;;2089812;28;19929;-47
2022/02/19 06:51:18;;;;;;;;;;;;;;;;;;2089402;28;19924;-47
2022/02/19 06:52:19;;;;;;;;;;;;;;;;;;2094200;28;19925;-46
2022/02/19 06:53:20;;;;;;;;;;;;;;;;;;2097760;28;20018;-46
2022/02/19 06:54:21;;;;;;;;;;;;;;;;;;2097123;28;20318;-46
2022/02/19 06:55:22;;;;;;;;;;;;;;;;;;2096205;28;19954;-47
2022/02/19 06:56:23;;;;;;;;;;;;;;;;;;2097854;28;19974;-47